sensor_id;sensor_type;location;lat;lon;timestamp;temperature;humidity
15636;DHT22;7917;50.818;6.972;2022-11-15T00:00:48;9.50;99.90
15636;DHT22;7917;50.818;6.972;2022-11-15T00:03:16;9.60;99.90
15636;DHT22;7917;50.818;6.972;2022-11-15T00:05:44;9.60;99.90
15636;DHT22;7917;50.818;6.972;2022-11-15T00:08:12;9.70;99.90
15636;DHT22;7917;50.818;6.972;2022-11-15T00:10:39;9.80;99.90
15636;DHT22;7917;50.818;6.972;2022-11-15T00:13:07;9.80;99.90
15636;DHT22;7917;50.818;6.972;2022-11-15T00:15:37;9.90;99.90
15636;DHT22;7917;50.818;6.972;2022-11-15T00:18:05;9.90;99.90
15636;DHT22;7917;50.818;6.972;2022-11-15T00:20:34;9.90;99.90
15636;DHT22;7917;50.818;6.972;2022-11-15T00:23:03;9.90;99.90
15636;DHT22;7917;50.818;6.972;2022-11-15T00:25:30;10.00;99.90
15636;DHT22;7917;50.818;6.972;2022-11-15T00:27:59;9.90;99.90
15636;DHT22;7917;50.818;6.972;2022-11-15T00:30:27;9.90;99.90
15636;DHT22;7917;50.818;6.972;2022-11-15T00:32:56;9.80;99.90
15636;DHT22;7917;50.818;6.972;2022-11-15T00:35:25;9.90;99.90
15636;DHT22;7917;50.818;6.972;2022-11-15T00:37:53;9.90;99.90
15636;DHT22;7917;50.818;6.972;2022-11-15T00:40:20;9.90;99.90
15636;DHT22;7917;50.818;6.972;2022-11-15T00:42:47;10.00;99.90
15636;DHT22;7917;50.818;6.972;2022-11-15T00:45:15;10.00;99.90
15636;DHT22;7917;50.818;6.972;2022-11-15T00:47:44;10.00;99.90
15636;DHT22;7917;50.818;6.972;2022-11-15T00:50:13;10.00;99.90
15636;DHT22;7917;50.818;6.972;2022-11-15T00:52:41;10.00;99.90
15636;DHT22;7917;50.818;6.972;2022-11-15T00:55:09;9.90;99.90
15636;DHT22;7917;50.818;6.972;2022-11-15T00:57:40;10.00;99.90
15636;DHT22;7917;50.818;6.972;2022-11-15T01:00:08;10.00;99.90
15636;DHT22;7917;50.818;6.972;2022-11-15T01:02:36;10.00;99.90
15636;DHT22;7917;50.818;6.972;2022-11-15T01:05:04;10.00;99.90
15636;DHT22;7917;50.818;6.972;2022-11-15T01:07:33;10.00;99.90
15636;DHT22;7917;50.818;6.972;2022-11-15T01:10:00;10.00;99.90
15636;DHT22;7917;50.818;6.972;2022-11-15T01:12:31;10.10;99.90
15636;DHT22;7917;50.818;6.972;2022-11-15T01:14:58;10.10;99.90
15636;DHT22;7917;50.818;6.972;2022-11-15T01:17:26;10.20;99.90
15636;DHT22;7917;50.818;6.972;2022-11-15T01:19:53;10.20;99.90
15636;DHT22;7917;50.818;6.972;2022-11-15T01:22:20;10.30;99.90
15636;DHT22;7917;50.818;6.972;2022-11-15T01:24:49;10.30;99.90
15636;DHT22;7917;50.818;6.972;2022-11-15T01:27:19;10.30;99.90
15636;DHT22;7917;50.818;6.972;2022-11-15T01:29:50;10.30;99.90
15636;DHT22;7917;50.818;6.972;2022-11-15T01:32:17;10.30;99.90
15636;DHT22;7917;50.818;6.972;2022-11-15T01:34:44;10.30;99.90
15636;DHT22;7917;50.818;6.972;2022-11-15T01:37:11;10.30;99.90
15636;DHT22;7917;50.818;6.972;2022-11-15T01:39:39;10.30;99.90
15636;DHT22;7917;50.818;6.972;2022-11-15T01:42:12;10.30;99.90
15636;DHT22;7917;50.818;6.972;2022-11-15T01:44:43;10.40;99.90
15636;DHT22;7917;50.818;6.972;2022-11-15T01:47:15;10.40;99.90
15636;DHT22;7917;50.818;6.972;2022-11-15T01:49:49;10.50;99.90
15636;DHT22;7917;50.818;6.972;2022-11-15T01:52:20;10.60;99.90
15636;DHT22;7917;50.818;6.972;2022-11-15T01:54:50;10.60;99.90
15636;DHT22;7917;50.818;6.972;2022-11-15T01:57:22;10.60;99.90
15636;DHT22;7917;50.818;6.972;2022-11-15T01:59:49;10.40;99.90
15636;DHT22;7917;50.818;6.972;2022-11-15T02:02:18;10.40;99.90
15636;DHT22;7917;50.818;6.972;2022-11-15T02:04:46;10.40;99.90
15636;DHT22;7917;50.818;6.972;2022-11-15T02:07:16;10.30;99.90
15636;DHT22;7917;50.818;6.972;2022-11-15T02:09:44;10.20;99.90
15636;DHT22;7917;50.818;6.972;2022-11-15T02:12:14;10.20;99.90
15636;DHT22;7917;50.818;6.972;2022-11-15T02:14:50;10.20;99.90
15636;DHT22;7917;50.818;6.972;2022-11-15T02:17:33;10.20;99.90
15636;DHT22;7917;50.818;6.972;2022-11-15T02:20:36;10.20;99.90
15636;DHT22;7917;50.818;6.972;2022-11-15T02:23:41;10.30;99.90
15636;DHT22;7917;50.818;6.972;2022-11-15T02:26:41;10.40;99.90
15636;DHT22;7917;50.818;6.972;2022-11-15T02:29:12;10.60;99.90
15636;DHT22;7917;50.818;6.972;2022-11-15T02:31:47;10.70;99.90
15636;DHT22;7917;50.818;6.972;2022-11-15T02:34:27;10.70;99.90
15636;DHT22;7917;50.818;6.972;2022-11-15T02:37:03;10.80;99.90
15636;DHT22;7917;50.818;6.972;2022-11-15T02:39:40;10.80;99.90
15636;DHT22;7917;50.818;6.972;2022-11-15T02:42:14;10.80;99.90
15636;DHT22;7917;50.818;6.972;2022-11-15T02:45:03;10.90;99.90
15636;DHT22;7917;50.818;6.972;2022-11-15T02:47:37;10.90;99.90
15636;DHT22;7917;50.818;6.972;2022-11-15T02:50:08;11.00;99.90
15636;DHT22;7917;50.818;6.972;2022-11-15T02:52:36;11.00;99.90
15636;DHT22;7917;50.818;6.972;2022-11-15T02:55:04;11.00;99.90
15636;DHT22;7917;50.818;6.972;2022-11-15T02:57:41;11.00;99.90
15636;DHT22;7917;50.818;6.972;2022-11-15T03:00:15;11.00;99.90
15636;DHT22;7917;50.818;6.972;2022-11-15T03:03:03;10.90;99.90
15636;DHT22;7917;50.818;6.972;2022-11-15T03:05:40;11.00;99.90
15636;DHT22;7917;50.818;6.972;2022-11-15T03:08:12;11.00;99.90
15636;DHT22;7917;50.818;6.972;2022-11-15T03:10:46;11.00;99.90
15636;DHT22;7917;50.818;6.972;2022-11-15T03:13:24;11.00;99.90
15636;DHT22;7917;50.818;6.972;2022-11-15T03:15:57;11.00;99.90
15636;DHT22;7917;50.818;6.972;2022-11-15T03:18:33;11.00;99.90
15636;DHT22;7917;50.818;6.972;2022-11-15T03:21:05;11.00;99.90
15636;DHT22;7917;50.818;6.972;2022-11-15T03:23:34;11.00;99.90
15636;DHT22;7917;50.818;6.972;2022-11-15T03:26:05;11.00;99.90
15636;DHT22;7917;50.818;6.972;2022-11-15T03:28:37;11.00;99.90
15636;DHT22;7917;50.818;6.972;2022-11-15T03:31:06;11.10;99.90
15636;DHT22;7917;50.818;6.972;2022-11-15T03:33:53;11.10;99.90
15636;DHT22;7917;50.818;6.972;2022-11-15T03:36:25;11.20;99.90
15636;DHT22;7917;50.818;6.972;2022-11-15T03:38:54;11.30;99.90
15636;DHT22;7917;50.818;6.972;2022-11-15T03:41:27;11.30;99.90
15636;DHT22;7917;50.818;6.972;2022-11-15T03:44:02;11.20;99.90
15636;DHT22;7917;50.818;6.972;2022-11-15T03:46:33;11.30;99.90
15636;DHT22;7917;50.818;6.972;2022-11-15T03:49:09;11.30;99.90
15636;DHT22;7917;50.818;6.972;2022-11-15T03:51:39;11.30;99.90
15636;DHT22;7917;50.818;6.972;2022-11-15T03:54:06;11.30;99.90
15636;DHT22;7917;50.818;6.972;2022-11-15T03:56:36;11.30;99.90
15636;DHT22;7917;50.818;6.972;2022-11-15T03:59:04;11.20;99.90
15636;DHT22;7917;50.818;6.972;2022-11-15T04:01:31;11.20;99.90
15636;DHT22;7917;50.818;6.972;2022-11-15T04:03:58;11.20;99.90
15636;DHT22;7917;50.818;6.972;2022-11-15T04:06:27;11.20;99.90
15636;DHT22;7917;50.818;6.972;2022-11-15T04:08:54;11.20;99.90
15636;DHT22;7917;50.818;6.972;2022-11-15T04:11:23;11.20;99.90
15636;DHT22;7917;50.818;6.972;2022-11-15T04:13:50;11.30;99.90
15636;DHT22;7917;50.818;6.972;2022-11-15T04:16:18;11.30;99.90
15636;DHT22;7917;50.818;6.972;2022-11-15T04:18:45;11.20;99.90
15636;DHT22;7917;50.818;6.972;2022-11-15T04:21:35;11.10;99.90
15636;DHT22;7917;50.818;6.972;2022-11-15T04:24:19;11.00;99.90
15636;DHT22;7917;50.818;6.972;2022-11-15T04:26:47;10.90;99.90
15636;DHT22;7917;50.818;6.972;2022-11-15T04:29:14;10.80;99.90
15636;DHT22;7917;50.818;6.972;2022-11-15T04:31:59;10.80;99.90
15636;DHT22;7917;50.818;6.972;2022-11-15T04:34:26;10.80;99.90
15636;DHT22;7917;50.818;6.972;2022-11-15T04:36:55;10.90;99.90
15636;DHT22;7917;50.818;6.972;2022-11-15T04:39:43;11.00;99.90
15636;DHT22;7917;50.818;6.972;2022-11-15T04:42:10;11.10;99.90
15636;DHT22;7917;50.818;6.972;2022-11-15T04:44:37;11.10;99.90
15636;DHT22;7917;50.818;6.972;2022-11-15T04:47:05;11.00;99.90
15636;DHT22;7917;50.818;6.972;2022-11-15T04:49:33;11.00;99.90
15636;DHT22;7917;50.818;6.972;2022-11-15T04:52:03;11.00;99.90
15636;DHT22;7917;50.818;6.972;2022-11-15T04:54:30;10.90;99.90
15636;DHT22;7917;50.818;6.972;2022-11-15T04:56:57;10.90;99.90
15636;DHT22;7917;50.818;6.972;2022-11-15T04:59:25;10.70;99.90
15636;DHT22;7917;50.818;6.972;2022-11-15T05:01:52;10.70;99.90
15636;DHT22;7917;50.818;6.972;2022-11-15T05:04:19;10.60;99.90
15636;DHT22;7917;50.818;6.972;2022-11-15T05:06:47;10.60;99.90
15636;DHT22;7917;50.818;6.972;2022-11-15T05:09:16;10.50;99.90
15636;DHT22;7917;50.818;6.972;2022-11-15T05:11:44;10.60;99.90
15636;DHT22;7917;50.818;6.972;2022-11-15T05:14:12;10.60;99.90
15636;DHT22;7917;50.818;6.972;2022-11-15T05:16:40;10.60;99.90
15636;DHT22;7917;50.818;6.972;2022-11-15T05:19:07;10.60;99.90
15636;DHT22;7917;50.818;6.972;2022-11-15T05:21:35;10.70;99.90
15636;DHT22;7917;50.818;6.972;2022-11-15T05:24:03;10.60;99.90
15636;DHT22;7917;50.818;6.972;2022-11-15T05:26:31;10.50;99.90
15636;DHT22;7917;50.818;6.972;2022-11-15T05:28:59;10.40;99.90
15636;DHT22;7917;50.818;6.972;2022-11-15T05:31:26;10.30;99.90
15636;DHT22;7917;50.818;6.972;2022-11-15T05:33:55;10.20;99.90
15636;DHT22;7917;50.818;6.972;2022-11-15T05:36:29;10.20;99.90
15636;DHT22;7917;50.818;6.972;2022-11-15T05:38:58;10.10;99.90
15636;DHT22;7917;50.818;6.972;2022-11-15T05:41:29;10.10;99.90
15636;DHT22;7917;50.818;6.972;2022-11-15T05:43:58;9.90;99.90
15636;DHT22;7917;50.818;6.972;2022-11-15T05:46:27;9.90;99.90
15636;DHT22;7917;50.818;6.972;2022-11-15T05:48:57;10.00;99.90
15636;DHT22;7917;50.818;6.972;2022-11-15T05:51:29;10.00;99.90
15636;DHT22;7917;50.818;6.972;2022-11-15T05:53:58;10.00;99.90
15636;DHT22;7917;50.818;6.972;2022-11-15T05:56:25;9.90;99.90
15636;DHT22;7917;50.818;6.972;2022-11-15T05:58:53;9.90;99.90
15636;DHT22;7917;50.818;6.972;2022-11-15T06:01:25;9.80;99.90
15636;DHT22;7917;50.818;6.972;2022-11-15T06:03:52;9.80;99.90
15636;DHT22;7917;50.818;6.972;2022-11-15T06:06:22;9.70;99.90
15636;DHT22;7917;50.818;6.972;2022-11-15T06:08:51;9.70;99.90
15636;DHT22;7917;50.818;6.972;2022-11-15T06:11:19;9.70;99.90
15636;DHT22;7917;50.818;6.972;2022-11-15T06:13:46;9.50;99.90
15636;DHT22;7917;50.818;6.972;2022-11-15T06:16:15;9.50;99.90
15636;DHT22;7917;50.818;6.972;2022-11-15T06:18:46;9.50;99.90
15636;DHT22;7917;50.818;6.972;2022-11-15T06:21:14;9.40;99.90
15636;DHT22;7917;50.818;6.972;2022-11-15T06:23:55;9.40;99.90
15636;DHT22;7917;50.818;6.972;2022-11-15T06:26:22;9.30;99.90
15636;DHT22;7917;50.818;6.972;2022-11-15T06:28:49;9.30;99.90
15636;DHT22;7917;50.818;6.972;2022-11-15T06:31:16;9.30;99.90
15636;DHT22;7917;50.818;6.972;2022-11-15T06:33:46;9.10;99.90
15636;DHT22;7917;50.818;6.972;2022-11-15T06:36:15;9.10;99.90
15636;DHT22;7917;50.818;6.972;2022-11-15T06:38:43;9.20;99.90
15636;DHT22;7917;50.818;6.972;2022-11-15T06:41:11;9.20;99.90
15636;DHT22;7917;50.818;6.972;2022-11-15T06:43:39;9.10;99.90
15636;DHT22;7917;50.818;6.972;2022-11-15T06:46:07;9.10;99.90
15636;DHT22;7917;50.818;6.972;2022-11-15T06:48:35;9.00;99.90
15636;DHT22;7917;50.818;6.972;2022-11-15T06:51:09;9.00;99.90
15636;DHT22;7917;50.818;6.972;2022-11-15T06:53:37;8.90;99.90
15636;DHT22;7917;50.818;6.972;2022-11-15T06:56:05;8.90;99.90
15636;DHT22;7917;50.818;6.972;2022-11-15T06:58:33;8.80;99.90
15636;DHT22;7917;50.818;6.972;2022-11-15T07:01:03;8.80;99.90
15636;DHT22;7917;50.818;6.972;2022-11-15T07:03:30;8.80;99.90
15636;DHT22;7917;50.818;6.972;2022-11-15T07:05:58;8.80;99.90
15636;DHT22;7917;50.818;6.972;2022-11-15T07:08:27;8.90;99.90
15636;DHT22;7917;50.818;6.972;2022-11-15T07:10:57;8.80;99.90
15636;DHT22;7917;50.818;6.972;2022-11-15T07:13:25;8.90;99.90
15636;DHT22;7917;50.818;6.972;2022-11-15T07:15:53;8.90;99.90
15636;DHT22;7917;50.818;6.972;2022-11-15T07:18:20;9.00;99.90
15636;DHT22;7917;50.818;6.972;2022-11-15T07:20:47;9.10;99.90
15636;DHT22;7917;50.818;6.972;2022-11-15T07:23:14;9.10;99.90
15636;DHT22;7917;50.818;6.972;2022-11-15T07:25:43;9.20;99.90
15636;DHT22;7917;50.818;6.972;2022-11-15T07:28:10;9.30;99.90
15636;DHT22;7917;50.818;6.972;2022-11-15T07:30:38;9.30;99.90
15636;DHT22;7917;50.818;6.972;2022-11-15T07:33:05;9.40;99.90
15636;DHT22;7917;50.818;6.972;2022-11-15T07:35:32;9.50;99.90
15636;DHT22;7917;50.818;6.972;2022-11-15T07:38:01;9.50;99.90
15636;DHT22;7917;50.818;6.972;2022-11-15T07:40:30;9.60;99.90
15636;DHT22;7917;50.818;6.972;2022-11-15T07:43:04;9.60;99.90
15636;DHT22;7917;50.818;6.972;2022-11-15T07:45:32;9.60;99.90
15636;DHT22;7917;50.818;6.972;2022-11-15T07:48:00;9.60;99.90
15636;DHT22;7917;50.818;6.972;2022-11-15T07:50:32;9.60;99.90
15636;DHT22;7917;50.818;6.972;2022-11-15T07:53:00;9.70;99.90
15636;DHT22;7917;50.818;6.972;2022-11-15T07:55:28;9.70;99.90
15636;DHT22;7917;50.818;6.972;2022-11-15T07:58:04;9.80;99.90
15636;DHT22;7917;50.818;6.972;2022-11-15T08:00:33;9.80;99.90
15636;DHT22;7917;50.818;6.972;2022-11-15T08:03:04;9.90;99.90
15636;DHT22;7917;50.818;6.972;2022-11-15T08:05:32;9.90;99.90
15636;DHT22;7917;50.818;6.972;2022-11-15T08:07:59;10.00;99.90
15636;DHT22;7917;50.818;6.972;2022-11-15T08:10:27;10.00;99.90
15636;DHT22;7917;50.818;6.972;2022-11-15T08:12:58;10.00;99.90
15636;DHT22;7917;50.818;6.972;2022-11-15T08:15:27;10.00;99.90
15636;DHT22;7917;50.818;6.972;2022-11-15T08:17:56;10.00;99.90
15636;DHT22;7917;50.818;6.972;2022-11-15T08:20:24;10.10;99.90
15636;DHT22;7917;50.818;6.972;2022-11-15T08:22:51;10.10;99.90
15636;DHT22;7917;50.818;6.972;2022-11-15T08:25:21;10.10;99.90
15636;DHT22;7917;50.818;6.972;2022-11-15T08:27:51;10.20;99.90
15636;DHT22;7917;50.818;6.972;2022-11-15T08:30:21;10.30;99.90
15636;DHT22;7917;50.818;6.972;2022-11-15T08:32:51;10.30;99.90
15636;DHT22;7917;50.818;6.972;2022-11-15T08:35:19;10.40;99.90
15636;DHT22;7917;50.818;6.972;2022-11-15T08:37:47;10.40;99.90
15636;DHT22;7917;50.818;6.972;2022-11-15T08:40:15;10.50;99.90
15636;DHT22;7917;50.818;6.972;2022-11-15T08:42:45;10.60;99.90
15636;DHT22;7917;50.818;6.972;2022-11-15T08:45:13;10.70;99.90
15636;DHT22;7917;50.818;6.972;2022-11-15T08:47:40;10.80;99.90
15636;DHT22;7917;50.818;6.972;2022-11-15T08:50:09;10.90;99.90
15636;DHT22;7917;50.818;6.972;2022-11-15T08:52:36;11.00;99.90
15636;DHT22;7917;50.818;6.972;2022-11-15T08:55:05;11.00;99.90
15636;DHT22;7917;50.818;6.972;2022-11-15T08:57:32;11.10;99.90
15636;DHT22;7917;50.818;6.972;2022-11-15T09:00:00;11.20;99.90
15636;DHT22;7917;50.818;6.972;2022-11-15T09:02:28;11.30;99.90
15636;DHT22;7917;50.818;6.972;2022-11-15T09:04:56;11.50;99.90
15636;DHT22;7917;50.818;6.972;2022-11-15T09:07:24;11.50;99.90
15636;DHT22;7917;50.818;6.972;2022-11-15T09:09:52;11.60;99.90
15636;DHT22;7917;50.818;6.972;2022-11-15T09:12:19;11.70;99.90
15636;DHT22;7917;50.818;6.972;2022-11-15T09:14:46;11.70;99.90
15636;DHT22;7917;50.818;6.972;2022-11-15T09:17:13;11.80;99.90
15636;DHT22;7917;50.818;6.972;2022-11-15T09:19:41;11.80;99.90
15636;DHT22;7917;50.818;6.972;2022-11-15T09:22:08;11.90;99.90
15636;DHT22;7917;50.818;6.972;2022-11-15T09:24:37;11.90;99.90
15636;DHT22;7917;50.818;6.972;2022-11-15T09:27:04;12.00;99.90
15636;DHT22;7917;50.818;6.972;2022-11-15T09:29:31;12.10;99.90
15636;DHT22;7917;50.818;6.972;2022-11-15T09:31:59;12.00;99.90
15636;DHT22;7917;50.818;6.972;2022-11-15T09:34:26;12.10;99.90
15636;DHT22;7917;50.818;6.972;2022-11-15T09:36:53;12.20;99.90
15636;DHT22;7917;50.818;6.972;2022-11-15T09:39:21;12.10;99.90
15636;DHT22;7917;50.818;6.972;2022-11-15T09:42:04;12.20;99.90
15636;DHT22;7917;50.818;6.972;2022-11-15T09:45:06;12.30;99.90
15636;DHT22;7917;50.818;6.972;2022-11-15T09:48:01;12.40;99.90
15636;DHT22;7917;50.818;6.972;2022-11-15T09:50:36;12.40;1.00
15636;DHT22;7917;50.818;6.972;2022-11-15T09:53:11;12.50;99.90
15636;DHT22;7917;50.818;6.972;2022-11-15T09:55:51;12.50;1.00
15636;DHT22;7917;50.818;6.972;2022-11-15T09:58:28;12.50;99.90
15636;DHT22;7917;50.818;6.972;2022-11-15T10:01:04;12.50;99.90
15636;DHT22;7917;50.818;6.972;2022-11-15T10:03:35;12.50;99.90
15636;DHT22;7917;50.818;6.972;2022-11-15T10:06:05;12.60;99.90
15636;DHT22;7917;50.818;6.972;2022-11-15T10:08:45;12.70;99.90
15636;DHT22;7917;50.818;6.972;2022-11-15T10:11:18;12.80;99.90
15636;DHT22;7917;50.818;6.972;2022-11-15T10:13:49;12.80;99.90
15636;DHT22;7917;50.818;6.972;2022-11-15T10:16:47;12.90;99.90
15636;DHT22;7917;50.818;6.972;2022-11-15T10:19:23;13.00;99.90
15636;DHT22;7917;50.818;6.972;2022-11-15T10:21:59;13.00;99.90
15636;DHT22;7917;50.818;6.972;2022-11-15T10:24:28;13.10;99.90
15636;DHT22;7917;50.818;6.972;2022-11-15T10:26:57;13.20;99.90
15636;DHT22;7917;50.818;6.972;2022-11-15T10:29:27;13.30;99.90
15636;DHT22;7917;50.818;6.972;2022-11-15T10:31:54;13.20;99.90
15636;DHT22;7917;50.818;6.972;2022-11-15T10:34:23;13.20;99.90
15636;DHT22;7917;50.818;6.972;2022-11-15T10:36:55;13.30;99.90
15636;DHT22;7917;50.818;6.972;2022-11-15T10:39:23;13.30;99.90
15636;DHT22;7917;50.818;6.972;2022-11-15T10:41:51;13.40;99.90
15636;DHT22;7917;50.818;6.972;2022-11-15T10:44:24;13.40;99.90
15636;DHT22;7917;50.818;6.972;2022-11-15T10:50:02;13.40;99.90
15636;DHT22;7917;50.818;6.972;2022-11-15T10:52:32;13.40;99.90
15636;DHT22;7917;50.818;6.972;2022-11-15T10:55:19;13.40;99.90
15636;DHT22;7917;50.818;6.972;2022-11-15T10:57:50;13.30;99.90
15636;DHT22;7917;50.818;6.972;2022-11-15T11:00:29;13.40;99.90
15636;DHT22;7917;50.818;6.972;2022-11-15T11:03:00;13.50;1.00
15636;DHT22;7917;50.818;6.972;2022-11-15T11:05:31;13.50;99.90
15636;DHT22;7917;50.818;6.972;2022-11-15T11:08:02;13.50;1.00
15636;DHT22;7917;50.818;6.972;2022-11-15T11:10:30;13.50;1.00
15636;DHT22;7917;50.818;6.972;2022-11-15T11:13:13;13.50;99.90
15636;DHT22;7917;50.818;6.972;2022-11-15T11:15:45;13.50;1.00
15636;DHT22;7917;50.818;6.972;2022-11-15T11:18:21;13.60;99.90
15636;DHT22;7917;50.818;6.972;2022-11-15T11:20:58;13.60;1.00
15636;DHT22;7917;50.818;6.972;2022-11-15T11:23:45;13.70;99.90
15636;DHT22;7917;50.818;6.972;2022-11-15T11:26:44;13.60;1.00
15636;DHT22;7917;50.818;6.972;2022-11-15T11:29:25;13.60;99.90
15636;DHT22;7917;50.818;6.972;2022-11-15T11:32:01;13.40;84.10
15636;DHT22;7917;50.818;6.972;2022-11-15T11:34:40;13.50;99.90
15636;DHT22;7917;50.818;6.972;2022-11-15T11:37:21;13.40;1.00
15636;DHT22;7917;50.818;6.972;2022-11-15T11:40:03;13.40;99.90
15636;DHT22;7917;50.818;6.972;2022-11-15T11:42:42;13.50;1.00
15636;DHT22;7917;50.818;6.972;2022-11-15T11:45:18;13.60;1.00
15636;DHT22;7917;50.818;6.972;2022-11-15T11:47:48;13.70;99.90
15636;DHT22;7917;50.818;6.972;2022-11-15T11:50:27;13.80;1.00
15636;DHT22;7917;50.818;6.972;2022-11-15T11:53:01;13.80;1.00
15636;DHT22;7917;50.818;6.972;2022-11-15T11:55:34;13.80;1.00
15636;DHT22;7917;50.818;6.972;2022-11-15T11:58:12;13.90;99.90
15636;DHT22;7917;50.818;6.972;2022-11-15T12:00:41;13.90;99.90
15636;DHT22;7917;50.818;6.972;2022-11-15T12:03:18;14.00;99.90
15636;DHT22;7917;50.818;6.972;2022-11-15T12:05:51;14.00;1.00
15636;DHT22;7917;50.818;6.972;2022-11-15T12:08:31;14.10;1.00
15636;DHT22;7917;50.818;6.972;2022-11-15T12:11:06;14.20;99.90
15636;DHT22;7917;50.818;6.972;2022-11-15T12:13:35;14.20;99.90
15636;DHT22;7917;50.818;6.972;2022-11-15T12:16:09;14.30;99.90
15636;DHT22;7917;50.818;6.972;2022-11-15T12:18:41;14.40;1.00
15636;DHT22;7917;50.818;6.972;2022-11-15T12:21:16;14.50;99.90
15636;DHT22;7917;50.818;6.972;2022-11-15T12:23:51;14.60;1.00
15636;DHT22;7917;50.818;6.972;2022-11-15T12:26:22;14.50;99.90
15636;DHT22;7917;50.818;6.972;2022-11-15T12:28:53;14.50;99.90
15636;DHT22;7917;50.818;6.972;2022-11-15T12:31:36;14.50;99.90
15636;DHT22;7917;50.818;6.972;2022-11-15T12:34:15;14.60;1.00
15636;DHT22;7917;50.818;6.972;2022-11-15T12:36:44;14.60;1.00
15636;DHT22;7917;50.818;6.972;2022-11-15T12:39:13;14.60;99.90
15636;DHT22;7917;50.818;6.972;2022-11-15T12:41:41;14.70;1.00
15636;DHT22;7917;50.818;6.972;2022-11-15T12:44:11;14.70;1.00
15636;DHT22;7917;50.818;6.972;2022-11-15T12:47:03;14.90;99.90
15636;DHT22;7917;50.818;6.972;2022-11-15T12:49:45;15.00;1.00
15636;DHT22;7917;50.818;6.972;2022-11-15T12:52:13;15.00;1.00
15636;DHT22;7917;50.818;6.972;2022-11-15T12:54:59;15.00;1.00
15636;DHT22;7917;50.818;6.972;2022-11-15T12:57:51;15.00;99.90
15636;DHT22;7917;50.818;6.972;2022-11-15T13:00:44;14.90;1.00
15636;DHT22;7917;50.818;6.972;2022-11-15T13:03:26;14.90;1.00
15636;DHT22;7917;50.818;6.972;2022-11-15T13:06:09;14.80;1.00
15636;DHT22;7917;50.818;6.972;2022-11-15T13:08:43;14.80;99.90
15636;DHT22;7917;50.818;6.972;2022-11-15T13:11:47;14.90;99.90
15636;DHT22;7917;50.818;6.972;2022-11-15T13:17:30;14.70;99.90
15636;DHT22;7917;50.818;6.972;2022-11-15T13:20:23;14.50;99.90
15636;DHT22;7917;50.818;6.972;2022-11-15T13:22:59;14.40;99.90
15636;DHT22;7917;50.818;6.972;2022-11-15T13:25:57;14.20;99.90
15636;DHT22;7917;50.818;6.972;2022-11-15T13:28:35;14.20;99.90
15636;DHT22;7917;50.818;6.972;2022-11-15T13:31:28;14.10;99.90
15636;DHT22;7917;50.818;6.972;2022-11-15T13:34:00;14.10;99.90
15636;DHT22;7917;50.818;6.972;2022-11-15T13:36:31;14.10;99.90
15636;DHT22;7917;50.818;6.972;2022-11-15T13:39:02;14.10;99.90
15636;DHT22;7917;50.818;6.972;2022-11-15T13:41:32;14.00;99.90
15636;DHT22;7917;50.818;6.972;2022-11-15T13:44:03;14.00;99.90
15636;DHT22;7917;50.818;6.972;2022-11-15T13:46:32;14.00;99.90
15636;DHT22;7917;50.818;6.972;2022-11-15T13:49:01;14.00;99.90
15636;DHT22;7917;50.818;6.972;2022-11-15T13:51:33;13.90;1.00
15636;DHT22;7917;50.818;6.972;2022-11-15T13:54:07;13.90;1.00
15636;DHT22;7917;50.818;6.972;2022-11-15T13:56:36;13.80;99.90
15636;DHT22;7917;50.818;6.972;2022-11-15T13:59:10;13.80;1.00
15636;DHT22;7917;50.818;6.972;2022-11-15T14:01:42;13.70;1.00
15636;DHT22;7917;50.818;6.972;2022-11-15T14:04:13;13.70;99.90
15636;DHT22;7917;50.818;6.972;2022-11-15T14:06:46;13.70;1.00
15636;DHT22;7917;50.818;6.972;2022-11-15T14:09:32;13.70;96.30
15636;DHT22;7917;50.818;6.972;2022-11-15T14:12:01;13.80;99.90
15636;DHT22;7917;50.818;6.972;2022-11-15T14:14:30;13.80;99.90
15636;DHT22;7917;50.818;6.972;2022-11-15T14:17:00;13.80;99.90
15636;DHT22;7917;50.818;6.972;2022-11-15T14:19:37;13.70;99.90
15636;DHT22;7917;50.818;6.972;2022-11-15T14:22:13;13.80;19.10
15636;DHT22;7917;50.818;6.972;2022-11-15T14:24:43;13.70;99.90
15636;DHT22;7917;50.818;6.972;2022-11-15T14:27:21;13.70;99.90
15636;DHT22;7917;50.818;6.972;2022-11-15T14:29:56;13.70;99.90
15636;DHT22;7917;50.818;6.972;2022-11-15T14:32:26;13.70;99.90
15636;DHT22;7917;50.818;6.972;2022-11-15T14:34:56;13.70;99.90
15636;DHT22;7917;50.818;6.972;2022-11-15T14:37:25;13.70;99.90
15636;DHT22;7917;50.818;6.972;2022-11-15T14:39:53;13.70;99.90
15636;DHT22;7917;50.818;6.972;2022-11-15T14:42:22;13.70;99.90
15636;DHT22;7917;50.818;6.972;2022-11-15T14:44:50;13.70;99.90
15636;DHT22;7917;50.818;6.972;2022-11-15T14:47:19;13.80;99.90
15636;DHT22;7917;50.818;6.972;2022-11-15T14:49:47;13.80;99.90
15636;DHT22;7917;50.818;6.972;2022-11-15T14:52:25;13.80;99.90
15636;DHT22;7917;50.818;6.972;2022-11-15T14:54:53;13.80;99.90
15636;DHT22;7917;50.818;6.972;2022-11-15T14:57:23;13.80;99.90
15636;DHT22;7917;50.818;6.972;2022-11-15T14:59:50;13.70;99.90
15636;DHT22;7917;50.818;6.972;2022-11-15T15:02:21;13.70;99.90
15636;DHT22;7917;50.818;6.972;2022-11-15T15:04:49;13.60;99.90
15636;DHT22;7917;50.818;6.972;2022-11-15T15:07:17;13.60;1.00
15636;DHT22;7917;50.818;6.972;2022-11-15T15:09:45;13.60;1.00
15636;DHT22;7917;50.818;6.972;2022-11-15T15:12:16;13.60;1.00
15636;DHT22;7917;50.818;6.972;2022-11-15T15:14:45;13.60;1.00
15636;DHT22;7917;50.818;6.972;2022-11-15T15:17:13;13.50;1.00
15636;DHT22;7917;50.818;6.972;2022-11-15T15:19:43;13.50;99.90
15636;DHT22;7917;50.818;6.972;2022-11-15T15:22:14;13.40;99.90
15636;DHT22;7917;50.818;6.972;2022-11-15T15:24:43;13.40;99.90
15636;DHT22;7917;50.818;6.972;2022-11-15T15:27:11;13.40;99.90
15636;DHT22;7917;50.818;6.972;2022-11-15T15:29:39;13.30;99.90
15636;DHT22;7917;50.818;6.972;2022-11-15T15:32:07;13.30;99.90
15636;DHT22;7917;50.818;6.972;2022-11-15T15:34:35;13.30;99.90
15636;DHT22;7917;50.818;6.972;2022-11-15T15:37:21;13.30;99.90
15636;DHT22;7917;50.818;6.972;2022-11-15T15:39:50;13.30;99.90
15636;DHT22;7917;50.818;6.972;2022-11-15T15:42:18;13.20;99.90
15636;DHT22;7917;50.818;6.972;2022-11-15T15:44:46;13.20;99.90
15636;DHT22;7917;50.818;6.972;2022-11-15T15:47:15;13.20;99.90
15636;DHT22;7917;50.818;6.972;2022-11-15T15:49:45;13.10;99.90
15636;DHT22;7917;50.818;6.972;2022-11-15T15:52:14;13.10;99.90
15636;DHT22;7917;50.818;6.972;2022-11-15T15:54:41;13.20;99.90
15636;DHT22;7917;50.818;6.972;2022-11-15T15:57:11;13.20;99.90
15636;DHT22;7917;50.818;6.972;2022-11-15T15:59:40;13.20;99.90
15636;DHT22;7917;50.818;6.972;2022-11-15T16:02:08;13.10;99.90
15636;DHT22;7917;50.818;6.972;2022-11-15T16:04:41;13.10;99.90
15636;DHT22;7917;50.818;6.972;2022-11-15T16:07:20;13.10;99.90
15636;DHT22;7917;50.818;6.972;2022-11-15T16:09:51;13.00;99.90
15636;DHT22;7917;50.818;6.972;2022-11-15T16:12:39;13.00;99.90
15636;DHT22;7917;50.818;6.972;2022-11-15T16:15:08;13.10;99.90
15636;DHT22;7917;50.818;6.972;2022-11-15T16:17:40;13.00;99.90
15636;DHT22;7917;50.818;6.972;2022-11-15T16:20:29;13.00;99.90
15636;DHT22;7917;50.818;6.972;2022-11-15T16:22:58;13.00;99.90
15636;DHT22;7917;50.818;6.972;2022-11-15T16:25:25;13.00;1.00